createdAt,value
2022-08-28T00:00:40.352Z,1.80
2022-08-28T00:03:07.498Z,2.53
2022-08-28T00:05:35.054Z,3.03
2022-08-28T00:08:02.571Z,1.90
2022-08-28T00:10:30.382Z,2.77
2022-08-28T00:12:58.519Z,2.73
2022-08-28T00:15:32.882Z,2.50
2022-08-28T00:18:00.451Z,2.13
2022-08-28T00:20:28.947Z,3.10
2022-08-28T00:22:56.322Z,2.63
2022-08-28T00:25:26.530Z,2.97
2022-08-28T00:27:57.427Z,2.97
2022-08-28T00:30:44.119Z,3.27
2022-08-28T00:33:14.847Z,2.67
2022-08-28T00:35:43.174Z,3.80
2022-08-28T00:38:11.125Z,2.67
2022-08-28T00:40:38.975Z,2.97
2022-08-28T00:43:07.713Z,6.60
2022-08-28T00:45:39.521Z,3.70
2022-08-28T00:48:06.695Z,3.50
2022-08-28T00:50:57.753Z,2.80
2022-08-28T00:53:32.805Z,3.50
2022-08-28T00:56:05.129Z,3.80
2022-08-28T00:58:41.685Z,3.03
2022-08-28T01:01:08.715Z,3.47
2022-08-28T01:03:37.400Z,3.60
2022-08-28T01:06:05.128Z,3.87
2022-08-28T01:08:33.503Z,3.50
2022-08-28T01:11:04.259Z,3.30
2022-08-28T01:13:32.547Z,3.60
2022-08-28T01:16:00.916Z,4.00
2022-08-28T01:18:28.907Z,3.43
2022-08-28T01:21:24.834Z,3.40
2022-08-28T01:23:53.841Z,3.20
2022-08-28T01:26:21.794Z,3.57
2022-08-28T01:28:48.913Z,4.10
2022-08-28T01:31:17.131Z,4.10
2022-08-28T01:33:45.760Z,3.13
2022-08-28T01:36:13.832Z,3.70
2022-08-28T01:38:42.720Z,4.00
2022-08-28T01:41:11.210Z,3.43
2022-08-28T01:43:40.588Z,3.17
2022-08-28T01:46:10.002Z,3.83
2022-08-28T01:48:39.629Z,3.43
2022-08-28T01:51:07.483Z,4.03
2022-08-28T01:53:34.609Z,4.13
2022-08-28T01:56:04.966Z,3.57
2022-08-28T01:58:37.449Z,3.60
2022-08-28T02:01:10.685Z,4.10
2022-08-28T02:03:38.269Z,3.67
2022-08-28T02:06:06.248Z,4.50
2022-08-28T02:08:33.120Z,3.90
2022-08-28T02:11:00.703Z,4.30
2022-08-28T02:13:27.620Z,4.07
2022-08-28T02:15:54.961Z,3.53
2022-08-28T02:18:21.921Z,3.90
2022-08-28T02:20:48.858Z,4.07
2022-08-28T02:23:15.734Z,3.80
2022-08-28T02:25:42.577Z,3.77
2022-08-28T02:28:09.514Z,4.80
2022-08-28T02:30:37.259Z,3.00
2022-08-28T02:33:04.219Z,3.73
2022-08-28T02:35:31.383Z,3.70
2022-08-28T02:38:00.419Z,4.17
2022-08-28T02:40:27.900Z,4.17
2022-08-28T02:42:54.911Z,3.60
2022-08-28T02:45:21.851Z,3.83
2022-08-28T02:47:51.180Z,4.20
2022-08-28T02:50:19.535Z,4.47
2022-08-28T02:52:46.837Z,4.07
2022-08-28T02:55:17.437Z,3.20
2022-08-28T02:57:46.005Z,3.93
2022-08-28T03:00:19.936Z,3.80
2022-08-28T03:02:47.613Z,3.43
2022-08-28T03:05:16.943Z,3.20
2022-08-28T03:07:43.811Z,4.23
2022-08-28T03:10:11.279Z,3.40
2022-08-28T03:12:38.646Z,4.17
2022-08-28T03:15:07.721Z,3.50
2022-08-28T03:17:36.941Z,3.70
2022-08-28T03:20:09.215Z,3.73
2022-08-28T03:22:55.545Z,3.70
2022-08-28T03:25:23.314Z,3.93
2022-08-28T03:27:50.678Z,4.40
2022-08-28T03:30:18.946Z,4.83
2022-08-28T03:32:45.831Z,4.60
2022-08-28T03:35:13.122Z,3.80
2022-08-28T03:37:40.100Z,4.10
2022-08-28T03:40:08.788Z,4.10
2022-08-28T03:42:35.792Z,4.30
2022-08-28T03:45:02.703Z,3.70
2022-08-28T03:47:29.735Z,4.00
2022-08-28T03:49:57.878Z,3.93
2022-08-28T03:52:25.673Z,4.00
2022-08-28T03:54:52.786Z,3.63
2022-08-28T03:57:21.419Z,3.30
2022-08-28T03:59:53.306Z,4.27
2022-08-28T04:02:20.658Z,4.13
2022-08-28T04:04:50.802Z,4.47
2022-08-28T04:07:19.703Z,4.33
2022-08-28T04:09:46.890Z,4.70
2022-08-28T04:12:14.500Z,4.40
2022-08-28T04:14:41.622Z,5.13
2022-08-28T04:17:08.925Z,4.00
2022-08-28T04:19:36.072Z,3.87
2022-08-28T04:22:02.946Z,3.97
2022-08-28T04:24:29.900Z,4.30
2022-08-28T04:26:56.835Z,6.27
2022-08-28T04:29:23.817Z,5.23
2022-08-28T04:31:50.864Z,6.57
2022-08-28T04:34:18.194Z,4.53
2022-08-28T04:36:46.100Z,5.67
2022-08-28T04:39:13.276Z,4.47
2022-08-28T04:41:40.582Z,4.10
2022-08-28T04:44:08.205Z,4.80
2022-08-28T04:46:35.291Z,4.67
2022-08-28T04:49:04.463Z,4.50
2022-08-28T04:51:32.271Z,4.43
2022-08-28T04:53:59.334Z,4.80
2022-08-28T04:56:26.672Z,4.50
2022-08-28T04:58:53.810Z,5.77
2022-08-28T05:01:24.725Z,4.40
2022-08-28T05:03:56.073Z,4.60
2022-08-28T05:06:26.750Z,4.80
2022-08-28T05:08:57.047Z,4.53
2022-08-28T05:11:34.555Z,4.40
2022-08-28T05:14:07.505Z,5.53
2022-08-28T05:16:44.386Z,5.03
2022-08-28T05:19:11.883Z,4.63
2022-08-28T05:21:39.225Z,5.93
2022-08-28T05:24:07.504Z,3.90
2022-08-28T05:26:35.029Z,4.27
2022-08-28T05:29:01.953Z,3.83
2022-08-28T05:31:31.084Z,4.20
2022-08-28T05:33:59.446Z,4.67
2022-08-28T05:36:29.130Z,4.20
2022-08-28T05:39:00.355Z,4.20
2022-08-28T05:41:30.785Z,3.80
2022-08-28T05:43:59.250Z,4.23
2022-08-28T05:46:28.161Z,4.37
2022-08-28T05:48:56.065Z,3.83
2022-08-28T05:51:24.779Z,4.57
2022-08-28T05:53:51.603Z,4.50
2022-08-28T05:56:22.163Z,4.03
2022-08-28T05:58:49.184Z,4.53
2022-08-28T06:01:17.740Z,4.27
2022-08-28T06:03:47.523Z,3.50
2022-08-28T06:06:14.477Z,3.50
2022-08-28T06:08:58.104Z,4.20
2022-08-28T06:11:26.990Z,4.10
2022-08-28T06:13:57.532Z,3.80
2022-08-28T06:16:24.467Z,3.90
2022-08-28T06:18:51.551Z,3.70
2022-08-28T06:21:18.399Z,5.23
2022-08-28T06:23:45.879Z,3.40
2022-08-28T06:26:12.762Z,4.23
2022-08-28T06:28:39.636Z,3.43
2022-08-28T06:31:23.999Z,3.23
2022-08-28T06:33:54.163Z,4.40
2022-08-28T06:36:21.999Z,3.10
2022-08-28T06:38:51.647Z,3.13
2022-08-28T06:41:19.281Z,3.07
2022-08-28T06:43:46.194Z,2.40
2022-08-28T06:46:13.328Z,3.60
2022-08-28T06:48:40.444Z,3.50
2022-08-28T06:51:09.754Z,3.20
2022-08-28T06:53:37.873Z,3.13
2022-08-28T06:56:08.479Z,3.10
2022-08-28T06:58:38.129Z,7.00
2022-08-28T07:01:14.307Z,4.93
2022-08-28T07:03:42.760Z,2.57
2022-08-28T07:06:13.858Z,3.13
2022-08-28T07:08:42.672Z,3.03
2022-08-28T07:11:15.756Z,3.37
2022-08-28T07:13:43.336Z,3.03
2022-08-28T07:16:10.795Z,1.80
2022-08-28T07:18:38.237Z,2.73
2022-08-28T07:21:11.621Z,3.23
2022-08-28T07:23:40.842Z,2.70
2022-08-28T07:26:12.609Z,2.97
2022-08-28T07:28:39.522Z,2.10
2022-08-28T07:31:11.610Z,2.87
2022-08-28T07:33:39.695Z,2.50
2022-08-28T07:36:08.788Z,2.67
2022-08-28T07:38:43.522Z,2.57
2022-08-28T07:41:16.012Z,1.97
2022-08-28T07:44:01.813Z,2.30
2022-08-28T07:46:29.287Z,2.07
2022-08-28T07:48:58.805Z,8.90
2022-08-28T07:51:26.937Z,2.10
2022-08-28T07:53:54.666Z,1.90
2022-08-28T07:56:21.652Z,2.30
2022-08-28T07:58:48.682Z,3.30
2022-08-28T08:01:17.493Z,2.33
2022-08-28T08:03:45.241Z,1.40
2022-08-28T08:06:13.345Z,1.97
2022-08-28T08:08:41.114Z,2.20
2022-08-28T08:11:11.327Z,1.90
2022-08-28T08:13:45.301Z,2.10
2022-08-28T08:16:17.342Z,2.30
2022-08-28T08:18:44.307Z,2.20
2022-08-28T08:21:13.889Z,2.50
2022-08-28T08:23:41.673Z,1.67
2022-08-28T08:26:12.353Z,1.87
2022-08-28T08:28:40.841Z,2.10
2022-08-28T08:31:13.802Z,1.97
2022-08-28T08:33:43.794Z,2.10
2022-08-28T08:36:12.781Z,2.17
2022-08-28T08:38:39.665Z,2.30
2022-08-28T08:41:29.330Z,1.73
2022-08-28T08:44:05.548Z,3.13
2022-08-28T08:46:36.854Z,1.73
2022-08-28T08:49:13.670Z,2.03
2022-08-28T08:51:54.680Z,2.37
2022-08-28T08:54:22.217Z,2.03
2022-08-28T08:56:51.653Z,2.27
2022-08-28T08:59:22.338Z,2.10
2022-08-28T09:02:12.219Z,1.97
2022-08-28T09:04:55.182Z,2.37
2022-08-28T09:07:37.991Z,2.00
2022-08-28T09:10:07.894Z,1.80
2022-08-28T09:13:00.864Z,1.83
2022-08-28T09:15:35.612Z,2.20
2022-08-28T09:18:23.662Z,2.17
2022-08-28T09:20:56.175Z,1.90
2022-08-28T09:23:24.669Z,1.70
2022-08-28T09:26:02.860Z,2.00
2022-08-28T09:28:31.722Z,1.63
2022-08-28T09:31:06.276Z,1.80
2022-08-28T09:33:43.369Z,2.07
2022-08-28T09:36:42.806Z,1.83
2022-08-28T09:39:20.387Z,1.53
2022-08-28T09:42:08.423Z,1.87
2022-08-28T09:44:51.961Z,1.70
2022-08-28T09:47:48.922Z,2.20
2022-08-28T09:50:27.039Z,2.10
2022-08-28T09:52:57.520Z,1.47
2022-08-28T09:55:45.940Z,1.20
2022-08-28T09:58:13.941Z,1.30
2022-08-28T10:01:07.290Z,1.63
2022-08-28T10:03:45.813Z,2.13
2022-08-28T10:06:25.100Z,1.70
2022-08-28T10:09:20.779Z,1.70
2022-08-28T10:12:15.941Z,1.80
2022-08-28T10:15:06.771Z,1.20
2022-08-28T10:17:39.203Z,1.60
2022-08-28T10:20:35.510Z,1.50
2022-08-28T10:23:11.011Z,1.17
2022-08-28T10:25:54.368Z,1.43
2022-08-28T10:28:35.944Z,1.40
2022-08-28T10:31:21.655Z,2.40
2022-08-28T10:34:12.666Z,2.10
2022-08-28T10:36:39.579Z,1.40
2022-08-28T10:39:17.579Z,2.17
2022-08-28T10:41:54.821Z,2.13
2022-08-28T10:44:43.961Z,1.80
2022-08-28T10:47:13.009Z,2.03
2022-08-28T10:49:42.371Z,1.40
2022-08-28T10:52:15.470Z,1.40
2022-08-28T10:54:48.309Z,1.60
2022-08-28T10:57:39.731Z,0.90
2022-08-28T11:00:18.580Z,1.40
2022-08-28T11:02:50.572Z,1.33
2022-08-28T11:05:27.605Z,2.30
2022-08-28T11:08:02.230Z,1.20
2022-08-28T11:10:35.275Z,2.17
2022-08-28T11:13:04.899Z,1.40
2022-08-28T11:15:37.182Z,1.40
2022-08-28T11:18:16.411Z,1.10
2022-08-28T11:21:03.997Z,1.07
2022-08-28T11:23:59.783Z,1.10
2022-08-28T11:26:39.708Z,1.10
2022-08-28T11:29:06.798Z,1.10
2022-08-28T11:31:37.487Z,4.40
2022-08-28T11:34:05.668Z,3.30
2022-08-28T11:36:32.772Z,1.87
2022-08-28T11:39:01.650Z,1.37
2022-08-28T11:41:36.609Z,1.30
2022-08-28T11:44:09.646Z,1.30
2022-08-28T11:46:42.057Z,2.30
2022-08-28T11:49:24.570Z,1.60
2022-08-28T11:51:57.333Z,1.57
2022-08-28T11:55:02.041Z,1.47
2022-08-28T12:00:59.953Z,1.70
2022-08-28T12:03:40.389Z,4.20
2022-08-28T12:06:08.739Z,1.17
2022-08-28T12:08:44.797Z,1.30
2022-08-28T12:11:40.560Z,1.27
2022-08-28T12:14:26.318Z,1.40
2022-08-28T12:16:59.076Z,1.27
2022-08-28T12:19:55.535Z,1.27
2022-08-28T12:22:26.367Z,1.57
2022-08-28T12:24:59.128Z,1.50
2022-08-28T12:27:26.897Z,0.87
2022-08-28T12:29:56.360Z,2.23
2022-08-28T12:32:44.839Z,1.20
2022-08-28T12:35:27.476Z,3.70
2022-08-28T12:37:56.019Z,3.97
2022-08-28T12:40:38.197Z,2.00
2022-08-28T12:43:11.033Z,1.13
2022-08-28T12:46:06.991Z,1.43
2022-08-28T12:48:54.635Z,1.00
2022-08-28T12:51:27.114Z,2.97
2022-08-28T12:53:57.618Z,1.17
2022-08-28T12:56:26.651Z,1.20
2022-08-28T12:58:53.524Z,1.27
2022-08-28T13:01:33.420Z,4.30
2022-08-28T13:04:22.438Z,1.47
2022-08-28T13:06:57.418Z,1.67
2022-08-28T13:09:27.285Z,1.00
2022-08-28T13:11:54.227Z,1.27
2022-08-28T13:14:46.136Z,1.20
2022-08-28T13:17:15.214Z,1.03
2022-08-28T13:20:01.469Z,0.97
2022-08-28T13:22:32.974Z,1.10
2022-08-28T13:25:01.441Z,2.27
2022-08-28T13:27:29.119Z,1.47
2022-08-28T13:30:08.165Z,1.70
2022-08-28T13:32:39.118Z,1.87
2022-08-28T13:35:13.566Z,0.93
2022-08-28T13:37:47.969Z,1.03
2022-08-28T13:40:45.904Z,2.00
2022-08-28T13:43:11.652Z,0.83
2022-08-28T13:45:42.896Z,1.40
2022-08-28T13:48:17.468Z,1.37
2022-08-28T13:50:47.646Z,2.00
2022-08-28T13:53:18.407Z,1.07
2022-08-28T13:55:46.221Z,2.27
2022-08-28T13:58:14.068Z,2.13
2022-08-28T14:00:47.673Z,1.37
2022-08-28T14:03:33.602Z,2.93
2022-08-28T14:06:00.664Z,1.30
2022-08-28T14:08:27.485Z,2.40
2022-08-28T14:10:54.404Z,1.80
2022-08-28T14:13:23.316Z,1.07
2022-08-28T14:15:50.224Z,1.50
2022-08-28T14:18:18.148Z,1.20
2022-08-28T14:20:45.211Z,1.97
2022-08-28T14:23:12.440Z,1.37
2022-08-28T14:25:44.865Z,1.70
2022-08-28T14:37:34.372Z,0.97
2022-08-28T14:40:01.403Z,3.17
2022-08-28T14:42:28.616Z,1.00
2022-08-28T14:44:55.545Z,1.47
2022-08-28T14:47:22.389Z,0.90
2022-08-28T14:49:49.341Z,1.03
2022-08-28T14:52:16.293Z,1.10
2022-08-28T14:54:43.448Z,1.17
2022-08-28T14:57:11.931Z,0.90
2022-08-28T14:59:39.196Z,1.20
2022-08-28T15:02:06.277Z,2.80
2022-08-28T15:04:35.369Z,1.20
2022-08-28T15:07:06.487Z,0.90
2022-08-28T15:09:36.861Z,7.07
2022-08-28T15:12:04.337Z,1.70
2022-08-28T15:14:31.422Z,1.73
2022-08-28T15:16:58.474Z,0.70
2022-08-28T15:19:25.500Z,1.10
2022-08-28T15:21:54.931Z,0.90
2022-08-28T15:24:28.498Z,1.13
2022-08-28T15:26:56.942Z,0.80
2022-08-28T15:29:23.991Z,1.70
2022-08-28T15:31:54.171Z,1.73
2022-08-28T15:34:23.964Z,1.00
2022-08-28T15:36:55.054Z,0.90
2022-08-28T15:39:43.600Z,1.50
2022-08-28T15:42:11.490Z,1.60
2022-08-28T15:44:39.009Z,1.63
2022-08-28T15:47:06.340Z,1.27
2022-08-28T15:49:37.533Z,1.47
2022-08-28T15:52:11.175Z,1.10
2022-08-28T15:54:38.307Z,1.20
2022-08-28T15:57:05.205Z,1.77
2022-08-28T15:59:38.057Z,0.83
2022-08-28T16:02:16.476Z,1.13
2022-08-28T16:04:43.446Z,1.27
2022-08-28T16:07:11.119Z,0.97
2022-08-28T16:09:38.158Z,1.03
2022-08-28T16:12:05.214Z,0.90
2022-08-28T16:14:33.053Z,1.00
2022-08-28T16:17:05.723Z,1.60
2022-08-28T16:19:38.154Z,2.03
2022-08-28T16:22:05.106Z,0.90
2022-08-28T16:24:31.920Z,1.87
2022-08-28T16:26:58.763Z,1.70
2022-08-28T16:29:26.353Z,1.00
2022-08-28T16:31:53.325Z,1.23
2022-08-28T16:34:20.214Z,1.10
2022-08-28T16:36:48.254Z,1.20
2022-08-28T16:39:15.277Z,1.33
2022-08-28T16:41:43.235Z,1.80
2022-08-28T16:44:10.125Z,1.43
2022-08-28T16:46:37.065Z,1.40
2022-08-28T16:49:04.035Z,1.93
2022-08-28T16:51:30.908Z,1.00
2022-08-28T16:53:58.385Z,1.30
2022-08-28T16:56:26.564Z,0.87
2022-08-28T16:58:53.959Z,1.07
2022-08-28T17:01:24.123Z,1.10
2022-08-28T17:03:52.549Z,1.20
2022-08-28T17:06:25.809Z,1.13
2022-08-28T17:08:56.595Z,0.83
2022-08-28T17:11:26.012Z,1.53
2022-08-28T17:13:53.682Z,1.40
2022-08-28T17:16:22.041Z,1.30
2022-08-28T17:18:52.718Z,1.40
2022-08-28T17:21:40.278Z,1.43
2022-08-28T17:24:08.454Z,1.37
2022-08-28T17:26:35.364Z,1.37
2022-08-28T17:29:02.912Z,1.50
2022-08-28T17:31:30.005Z,1.50
2022-08-28T17:33:57.227Z,1.30
2022-08-28T17:36:33.177Z,1.50
2022-08-28T17:39:03.442Z,2.63
2022-08-28T17:41:30.347Z,1.47
2022-08-28T17:43:57.342Z,1.00
2022-08-28T17:46:24.225Z,1.07
2022-08-28T17:48:55.766Z,1.37
2022-08-28T17:51:33.767Z,1.30
2022-08-28T17:54:11.251Z,1.60
2022-08-28T17:56:38.165Z,1.10
2022-08-28T17:59:05.575Z,1.53
2022-08-28T18:01:32.438Z,1.00
2022-08-28T18:03:59.312Z,1.27
2022-08-28T18:06:26.334Z,1.20
2022-08-28T18:08:53.609Z,1.70
2022-08-28T18:11:20.483Z,1.20
2022-08-28T18:13:47.754Z,1.77
2022-08-28T18:16:14.691Z,1.27
2022-08-28T18:18:42.172Z,1.37
2022-08-28T18:21:13.583Z,1.30
2022-08-28T18:23:40.685Z,1.30
2022-08-28T18:26:08.633Z,1.40
2022-08-28T18:28:36.298Z,1.30
2022-08-28T18:31:05.736Z,1.77
2022-08-28T18:33:33.465Z,1.13
2022-08-28T18:36:00.454Z,1.50
2022-08-28T18:38:35.000Z,1.00
2022-08-28T18:41:03.714Z,1.43
2022-08-28T18:43:31.064Z,1.70
2022-08-28T18:46:00.865Z,1.60
2022-08-28T18:48:28.445Z,1.20
2022-08-28T18:50:55.280Z,1.27
2022-08-28T18:53:23.859Z,1.47
2022-08-28T18:55:52.681Z,1.83
2022-08-28T18:58:20.237Z,1.60
2022-08-28T19:00:47.153Z,1.70
2022-08-28T19:03:14.713Z,2.00
2022-08-28T19:05:42.076Z,1.37
2022-08-28T19:08:09.178Z,1.80
2022-08-28T19:10:37.817Z,1.50
2022-08-28T19:13:06.345Z,1.63
2022-08-28T19:15:34.232Z,1.43
2022-08-28T19:18:01.457Z,2.20
2022-08-28T19:20:29.609Z,1.90
2022-08-28T19:22:57.714Z,1.40
2022-08-28T19:25:28.490Z,1.43
2022-08-28T19:28:01.596Z,1.90
2022-08-28T19:30:32.979Z,1.73
2022-08-28T19:33:01.635Z,1.50
2022-08-28T19:35:28.480Z,1.20
2022-08-28T19:37:55.703Z,1.57
2022-08-28T19:40:23.291Z,1.73
2022-08-28T19:42:51.320Z,1.20
2022-08-28T19:45:18.807Z,1.30
2022-08-28T19:47:47.029Z,1.20
2022-08-28T19:50:14.685Z,1.20
2022-08-28T19:52:43.510Z,1.10
2022-08-28T19:55:18.253Z,1.50
2022-08-28T19:57:49.373Z,1.40
2022-08-28T20:00:23.766Z,1.53
2022-08-28T20:02:52.499Z,1.37
2022-08-28T20:05:21.424Z,1.40
2022-08-28T20:07:48.423Z,2.10
2022-08-28T20:10:16.624Z,1.40
2022-08-28T20:12:48.474Z,1.57
2022-08-28T20:15:17.298Z,1.20
2022-08-28T20:17:49.946Z,1.60
2022-08-28T20:20:24.575Z,1.17
2022-08-28T20:22:54.115Z,1.53
2022-08-28T20:25:21.649Z,1.20
2022-08-28T20:27:48.796Z,1.43
2022-08-28T20:30:15.845Z,1.20
2022-08-28T20:32:43.008Z,1.10
2022-08-28T20:35:24.564Z,1.23
2022-08-28T20:37:54.553Z,1.77
2022-08-28T20:40:21.886Z,1.20
2022-08-28T20:42:49.324Z,1.10
2022-08-28T20:45:18.371Z,1.20
2022-08-28T20:47:46.141Z,1.13
2022-08-28T20:50:14.083Z,1.23
2022-08-28T20:52:41.295Z,1.10
2022-08-28T20:55:09.530Z,1.60
2022-08-28T20:57:36.969Z,1.30
2022-08-28T21:00:08.989Z,1.20
2022-08-28T21:02:37.304Z,1.00
2022-08-28T21:05:05.080Z,1.80
2022-08-28T21:07:34.129Z,1.10
2022-08-28T21:10:01.595Z,1.30
2022-08-28T21:12:31.740Z,1.50
2022-08-28T21:14:59.009Z,1.47
2022-08-28T21:17:29.295Z,1.70
2022-08-28T21:20:10.977Z,1.40
2022-08-28T21:22:39.179Z,1.60
2022-08-28T21:25:08.153Z,1.50
2022-08-28T21:27:35.746Z,1.10
2022-08-28T21:30:04.294Z,1.20
2022-08-28T21:32:32.744Z,1.03
2022-08-28T21:35:01.244Z,1.17
2022-08-28T21:37:28.547Z,1.00
2022-08-28T21:39:56.471Z,1.50
2022-08-28T21:42:24.046Z,1.20
2022-08-28T21:44:51.898Z,0.97
2022-08-28T21:47:22.964Z,1.20
2022-08-28T21:49:52.186Z,1.30
2022-08-28T21:52:21.070Z,0.93
2022-08-28T21:54:48.693Z,3.63
2022-08-28T21:57:16.622Z,1.40
2022-08-28T21:59:43.564Z,1.37
2022-08-28T22:02:10.529Z,1.10
2022-08-28T22:04:37.511Z,1.10
2022-08-28T22:07:04.414Z,1.10
2022-08-28T22:09:31.455Z,1.20
2022-08-28T22:11:58.417Z,1.10
2022-08-28T22:14:26.160Z,1.20
2022-08-28T22:16:53.145Z,1.03
2022-08-28T22:19:20.060Z,1.50
2022-08-28T22:22:05.771Z,0.90
2022-08-28T22:24:33.102Z,1.10
2022-08-28T22:27:00.186Z,0.97
2022-08-28T22:29:27.261Z,1.00
2022-08-28T22:31:54.209Z,1.20
2022-08-28T22:34:21.194Z,1.53
2022-08-28T22:36:48.089Z,1.17
2022-08-28T22:39:14.922Z,1.27
2022-08-28T22:41:42.173Z,1.73
2022-08-28T22:44:09.179Z,1.33
2022-08-28T22:46:36.481Z,2.20
2022-08-28T22:49:04.069Z,1.03
2022-08-28T22:51:34.812Z,1.30
2022-08-28T22:54:02.115Z,1.03
2022-08-28T22:56:29.122Z,1.40
2022-08-28T22:58:56.043Z,1.13
2022-08-28T23:01:25.635Z,1.37
2022-08-28T23:03:52.673Z,1.03
2022-08-28T23:06:21.471Z,1.17
2022-08-28T23:08:48.391Z,3.13
2022-08-28T23:11:15.473Z,1.30
2022-08-28T23:13:42.394Z,0.90
2022-08-28T23:16:09.596Z,1.20
2022-08-28T23:19:06.073Z,0.90
2022-08-28T23:21:28.704Z,1.90
2022-08-28T23:23:55.998Z,1.67
2022-08-28T23:26:24.043Z,1.00
2022-08-28T23:28:51.371Z,1.50
2022-08-28T23:31:18.584Z,1.10
2022-08-28T23:33:46.358Z,1.77
2022-08-28T23:36:14.869Z,1.33
2022-08-28T23:38:43.206Z,1.50
2022-08-28T23:41:11.414Z,1.10
2022-08-28T23:43:38.637Z,1.10
2022-08-28T23:46:06.625Z,1.13
2022-08-28T23:48:33.674Z,1.17
2022-08-28T23:51:02.203Z,1.33
2022-08-28T23:53:29.776Z,1.30
2022-08-28T23:55:59.630Z,1.30
2022-08-28T23:58:31.846Z,1.77
